Time;durP1;ratioP1;P1;durP2;ratioP2;P2;SDS_P1;SDS_P2;PMS_P1;PMS_P2;Temp;Humidity;BMP_temperature;BMP_pressure;BME280_temperature;BME280_humidity;BME280_pressure;Samples;Min_cycle;Max_cycle;Signal;HPM_P1;HPM_P2
2022/03/03 00:01:19;;;;;;;13.50;9.43;;;;;;;0.08;90.45;62004.66;5100339;28;20210;-77
2022/03/03 00:03:46;;;;;;;7.38;5.57;;;;;;;0.11;89.65;62012.75;5104785;28;20196;-78
2022/03/03 00:06:15;;;;;;;10.95;7.90;;;;;;;0.16;89.18;62014.84;5104151;28;20198;-78
2022/03/03 00:08:42;;;;;;;11.65;8.23;;;;;;;0.20;88.39;62024.47;5099461;28;20200;-77
2022/03/03 00:11:08;;;;;;;9.65;7.53;;;;;;;0.03;89.83;62000.03;5097238;28;20216;-76
2022/03/03 00:13:35;;;;;;;11.10;7.18;;;;;;;0.03;90.14;62004.03;5097999;28;20200;-78
2022/03/03 00:16:03;;;;;;;9.32;7.18;;;;;;;0.07;89.85;62008.63;5096690;28;20205;-79
2022/03/03 00:18:30;;;;;;;9.18;7.53;;;;;;;0.09;88.55;62010.69;5099484;28;20220;-79
2022/03/03 00:20:57;;;;;;;9.80;7.40;;;;;;;0.14;88.74;62020.81;5105384;28;20216;-77
2022/03/03 00:23:25;;;;;;;11.00;7.13;;;;;;;0.14;88.69;62012.81;5106165;28;20240;-77
2022/03/03 00:25:52;;;;;;;12.00;6.15;;;;;;;0.24;88.76;62023.06;5106093;28;20204;-76
2022/03/03 00:28:19;;;;;;;8.43;7.15;;;;;;;0.12;88.46;62011.28;5105621;28;20236;-78
2022/03/03 00:30:46;;;;;;;9.82;7.85;;;;;;;0.16;88.60;62017.34;5109678;28;20212;-78
2022/03/03 00:33:13;;;;;;;10.93;7.57;;;;;;;0.09;89.29;62008.19;5099965;28;20281;-77
2022/03/03 00:35:40;;;;;;;11.20;7.80;;;;;;;0.15;89.27;62014.34;5102548;28;20226;-77
2022/03/03 00:38:07;;;;;;;10.80;7.70;;;;;;;0.18;89.22;62019.91;5103611;28;20227;-79
2022/03/03 00:40:35;;;;;;;8.93;7.97;;;;;;;0.17;89.46;62018.38;5103931;28;20435;-76
2022/03/03 00:43:02;;;;;;;11.35;7.53;;;;;;;0.21;89.80;62023.00;5102480;28;20493;-77
2022/03/03 00:45:29;;;;;;;10.70;7.93;;;;;;;0.19;89.89;62028.44;5095770;28;20205;-78
2022/03/03 00:47:56;;;;;;;10.95;8.18;;;;;;;0.27;90.18;62026.66;5083905;28;20248;-76
2022/03/03 00:50:23;;;;;;;12.15;8.00;;;;;;;0.24;90.15;62030.56;5084201;28;20195;-76
2022/03/03 00:52:49;;;;;;;15.23;7.22;;;;;;;0.27;90.27;62031.13;5086889;28;20228;-76
2022/03/03 00:55:16;;;;;;;15.77;7.55;;;;;;;0.25;90.21;62024.06;5104171;28;20188;-76
2022/03/03 00:57:44;;;;;;;10.88;8.32;;;;;;;0.20;90.81;62021.97;5105519;28;20235;-77
2022/03/03 01:00:12;;;;;;;12.23;8.75;;;;;;;0.20;92.10;62019.47;5109970;28;20207;-77
2022/03/03 01:02:39;;;;;;;13.35;9.23;;;;;;;0.26;92.04;62025.63;5108059;28;20458;-76
2022/03/03 01:05:07;;;;;;;8.57;7.78;;;;;;;0.28;91.57;62027.66;5100995;28;20221;-76
2022/03/03 01:07:34;;;;;;;14.55;9.57;;;;;;;0.18;91.95;62016.91;5107641;28;20396;-77
2022/03/03 01:10:01;;;;;;;12.63;8.38;;;;;;;0.21;92.00;62020.50;5115876;28;20219;-76
2022/03/03 01:12:28;;;;;;;10.27;8.07;;;;;;;0.23;92.16;62025.03;5102132;28;20283;-77
2022/03/03 01:14:56;;;;;;;10.35;7.88;;;;;;;0.22;92.52;62021.00;5101355;28;20200;-77
2022/03/03 01:17:23;;;;;;;10.57;8.43;;;;;;;0.28;92.77;62035.16;5091959;28;20411;-78
2022/03/03 01:19:50;;;;;;;11.50;8.68;;;;;;;0.20;93.26;62016.97;5087687;28;20258;-78
2022/03/03 01:22:18;;;;;;;12.55;8.05;;;;;;;0.26;93.47;62020.59;5101166;28;20453;-77
2022/03/03 01:24:45;;;;;;;15.10;8.95;;;;;;;0.24;93.69;62028.59;5108102;28;20211;-77
2022/03/03 01:27:12;;;;;;;14.27;8.45;;;;;;;0.07;94.58;62006.13;5107294;28;20231;-77
2022/03/03 01:29:40;;;;;;;13.98;9.15;;;;;;;0.13;95.19;62009.28;5103126;28;20201;-76
2022/03/03 01:32:09;;;;;;;14.68;9.18;;;;;;;0.20;95.21;62018.94;5106836;28;20218;-76
2022/03/03 01:34:37;;;;;;;12.57;9.25;;;;;;;0.13;95.04;62011.78;5107178;28;20220;-76
2022/03/03 01:37:04;;;;;;;13.23;9.57;;;;;;;0.16;95.25;62017.34;5097329;28;20236;-75
2022/03/03 01:39:31;;;;;;;14.25;9.50;;;;;;;0.10;95.51;62008.72;5093078;28;20203;-77
2022/03/03 01:41:58;;;;;;;13.57;10.10;;;;;;;0.18;95.37;62019.91;5108536;28;20269;-76
2022/03/03 01:44:26;;;;;;;16.30;10.20;;;;;;;0.24;95.54;62023.06;5108151;28;20228;-76
2022/03/03 01:46:54;;;;;;;17.83;10.07;;;;;;;0.22;95.81;62019.03;5105212;28;20586;-76
2022/03/03 01:49:23;;;;;;;13.00;9.10;;;;;;;0.15;96.07;62016.34;5104517;28;20259;-76
2022/03/03 01:51:51;;;;;;;16.00;9.68;;;;;;;0.12;96.42;62011.28;5107279;28;20220;-77
2022/03/03 01:54:18;;;;;;;11.88;9.57;;;;;;;0.21;96.22;62025.50;5102929;28;20259;-78
2022/03/03 01:56:46;;;;;;;16.50;8.95;;;;;;;0.10;96.51;62006.22;5102337;28;20223;-78
2022/03/03 01:59:14;;;;;;;18.23;9.90;;;;;;;0.13;96.54;62011.78;5102690;28;20208;-77
2022/03/03 02:01:41;;;;;;;13.13;9.63;;;;;;;0.09;97.15;62010.19;5105933;28;20216;-77
2022/03/03 02:04:10;;;;;;;14.65;10.02;;;;;;;0.17;97.22;62020.88;5092797;28;20207;-77
2022/03/03 02:06:38;;;;;;;12.95;9.15;;;;;;;-0.02;98.09;61997.44;5100204;28;20215;-76
2022/03/03 02:09:05;;;;;;;18.45;10.48;;;;;;;0.08;97.76;62009.16;5106315;28;20237;-76
2022/03/03 02:11:33;;;;;;;16.40;10.32;;;;;;;0.12;97.91;62010.75;5104913;28;20220;-76
2022/03/03 02:14:00;;;;;;;19.80;11.07;;;;;;;0.07;98.57;62005.63;5105389;28;20251;-77
2022/03/03 02:16:27;;;;;;;13.82;10.38;;;;;;;0.11;98.40;62014.72;5096836;28;20394;-77
2022/03/03 02:18:53;;;;;;;18.80;10.80;;;;;;;0.10;98.45;62011.72;5086093;28;20232;-77
2022/03/03 02:21:22;;;;;;;16.52;11.20;;;;;;;0.14;98.42;62015.81;5085754;28;20193;-76
2022/03/03 02:23:49;;;;;;;18.05;10.55;;;;;;;0.18;98.15;62019.41;5093777;28;20202;-77
2022/03/03 02:26:20;;;;;;;16.27;11.60;;;;;;;0.09;97.96;62008.19;5099262;28;20237;-77
2022/03/03 02:28:48;;;;;;;15.15;10.27;;;;;;;0.13;98.10;62014.28;5085580;28;20235;-77
2022/03/03 02:31:15;;;;;;;15.02;10.63;;;;;;;0.17;98.64;62015.88;5085414;28;20193;-78
2022/03/03 02:33:42;;;;;;;14.95;10.38;;;;;;;0.20;98.24;62014.47;5085799;28;20378;-76
2022/03/03 02:36:21;;;;;;;15.13;10.27;;;;;;;0.15;98.20;62021.84;5103951;28;20200;-77
2022/03/03 02:38:49;;;;;;;17.63;10.85;;;;;;;0.23;98.52;62020.03;5105211;28;20272;-77
2022/03/03 02:41:17;;;;;;;13.55;9.48;;;;;;;0.05;99.39;62004.09;5105178;28;20493;-77
2022/03/03 02:43:44;;;;;;;16.42;10.90;;;;;;;0.19;99.27;62015.94;5101530;28;20354;-77
2022/03/03 02:46:11;;;;;;;18.73;10.70;;;;;;;0.12;99.44;62010.75;5105828;28;20200;-77
2022/03/03 02:48:38;;;;;;;15.52;10.85;;;;;;;0.07;99.32;62008.63;5105799;28;20195;-77
2022/03/03 02:51:06;;;;;;;16.17;11.13;;;;;;;0.11;99.83;62012.75;5104366;28;20196;-76
2022/03/03 02:53:35;;;;;;;15.63;10.75;;;;;;;0.07;99.95;62003.13;5098702;28;20273;-77
2022/03/03 02:56:03;;;;;;;14.98;10.57;;;;;;;0.15;99.72;62013.84;5105372;28;20192;-77
2022/03/03 02:58:29;;;;;;;19.20;12.07;;;;;;;0.14;99.82;62015.81;5103444;28;20277;-77
2022/03/03 03:00:57;;;;;;;16.38;10.82;;;;;;;0.17;100.00;62023.41;5101461;28;20199;-77
2022/03/03 03:03:24;;;;;;;14.38;8.95;;;;;;;0.11;100.00;62017.75;5104642;28;20485;-77
2022/03/03 03:05:51;;;;;;;11.82;7.00;;;;;;;-0.02;100.00;61997.44;5104594;28;20200;-77
2022/03/03 03:08:18;;;;;;;22.45;11.25;;;;;;;0.04;100.00;61998.06;5103128;28;20230;-77
2022/03/03 03:10:46;;;;;;;16.33;10.35;;;;;;;-0.02;100.00;61999.94;5099343;28;20204;-78
2022/03/03 03:13:14;;;;;;;17.63;11.05;;;;;;;-0.05;100.00;62001.88;5104069;28;20208;-77
2022/03/03 03:15:42;;;;;;;16.60;9.95;;;;;;;-0.11;100.00;61995.72;5086382;28;20270;-77
2022/03/03 03:18:10;;;;;;;15.95;10.65;;;;;;;0.02;100.00;62003.53;5084999;28;20451;-77
2022/03/03 03:20:37;;;;;;;15.18;9.95;;;;;;;0.03;100.00;62007.06;5098025;28;20390;-76
2022/03/03 03:23:05;;;;;;;17.77;10.98;;;;;;;0.06;100.00;62007.09;5104962;28;20261;-76
2022/03/03 03:25:31;;;;;;;16.23;11.10;;;;;;;0.13;100.00;62009.78;5104601;28;20531;-77
2022/03/03 03:28:00;;;;;;;15.57;11.18;;;;;;;0.18;100.00;62014.41;5101669;28;20227;-76
2022/03/03 03:30:26;;;;;;;20.30;11.05;;;;;;;0.14;100.00;62007.81;5091977;28;20200;-76
2022/03/03 03:32:54;;;;;;;16.30;10.70;;;;;;;0.12;100.00;62015.75;5105676;28;20216;-77
2022/03/03 03:35:21;;;;;;;18.25;11.40;;;;;;;0.14;100.00;62018.31;5108553;28;20215;-77
2022/03/03 03:37:48;;;;;;;18.33;10.30;;;;;;;0.18;100.00;62017.41;5105805;28;20270;-76
2022/03/03 03:40:15;;;;;;;16.10;10.43;;;;;;;0.07;100.00;62008.13;5113177;28;20222;-77
2022/03/03 03:42:41;;;;;;;17.63;11.38;;;;;;;0.08;100.00;62006.66;5113640;28;20212;-76
2022/03/03 03:45:11;;;;;;;17.00;10.48;;;;;;;0.14;100.00;62015.81;5113949;28;20230;-77
2022/03/03 03:47:38;;;;;;;20.50;11.02;;;;;;;0.21;100.00;62023.00;5105825;28;20242;-77
2022/03/03 03:50:08;;;;;;;17.33;11.65;;;;;;;0.11;100.00;62017.75;5105676;28;20196;-77
2022/03/03 03:52:35;;;;;;;17.48;10.45;;;;;;;0.17;100.00;62018.91;5105521;28;20219;-76
2022/03/03 03:55:02;;;;;;;18.90;11.95;;;;;;;0.19;100.00;62022.94;5103079;28;20238;-77
2022/03/03 03:57:29;;;;;;;17.10;10.77;;;;;;;0.25;100.00;62024.06;5089761;28;20231;-78
2022/03/03 03:59:56;;;;;;;17.58;11.00;;;;;;;0.16;100.00;62015.38;5105040;28;20208;-77
2022/03/03 04:02:25;;;;;;;25.20;11.02;;;;;;;0.13;100.00;62017.31;5104601;28;20226;-77
2022/03/03 04:04:52;;;;;;;16.38;9.45;;;;;;;0.01;100.00;62000.00;5098692;28;20203;-77
2022/03/03 04:07:19;;;;;;;14.52;9.25;;;;;;;0.01;100.00;62007.50;5104015;28;20211;-77
2022/03/03 04:09:46;;;;;;;18.38;10.23;;;;;;;0.02;100.00;62003.53;5099219;28;20250;-78
2022/03/03 04:12:13;;;;;;;17.38;9.25;;;;;;;0.06;100.00;62007.63;5106427;28;20249;-77
2022/03/03 04:14:40;;;;;;;17.92;11.77;;;;;;;0.00;100.00;61996.97;5106213;28;20560;-77
2022/03/03 04:17:07;;;;;;;16.17;10.93;;;;;;;0.06;100.00;62002.63;5095985;28;20606;-77
2022/03/03 04:19:35;;;;;;;17.40;10.85;;;;;;;0.05;100.00;62006.09;5093739;28;20238;-77
2022/03/03 04:22:03;;;;;;;14.52;9.82;;;;;;;0.10;100.00;62006.22;5106074;28;20215;-77
2022/03/03 04:24:30;;;;;;;19.50;10.90;;;;;;;0.01;100.00;62002.50;5106089;28;20200;-77
2022/03/03 04:26:57;;;;;;;19.20;11.98;;;;;;;-0.20;100.00;61976.50;5097169;28;20220;-77
2022/03/03 04:29:24;;;;;;;17.48;11.85;;;;;;;0.03;100.00;62002.06;5100181;28;20283;-78
2022/03/03 04:31:53;;;;;;;14.27;8.52;;;;;;;0.09;98.98;62005.19;5103464;28;20552;-78
2022/03/03 04:34:21;;;;;;;21.48;12.90;;;;;;;0.06;99.58;62012.63;5104294;28;20740;-77
2022/03/03 04:36:49;;;;;;;18.92;10.05;;;;;;;0.04;98.88;62003.06;5102499;28;20243;-78
2022/03/03 04:39:16;;;;;;;15.35;10.95;;;;;;;-0.25;100.00;61976.38;5101256;28;20521;-77
2022/03/03 04:41:43;;;;;;;17.10;9.75;;;;;;;-0.12;100.00;61984.16;5108253;28;20219;-76
2022/03/03 04:44:09;;;;;;;13.60;9.80;;;;;;;-0.07;100.00;62002.31;5113117;28;20192;-76
2022/03/03 04:46:36;;;;;;;16.35;10.23;;;;;;;-0.12;100.00;61989.69;5107092;28;20224;-76
2022/03/03 04:49:03;;;;;;;18.17;11.18;;;;;;;-0.10;100.00;61988.72;5106578;28;20211;-78
2022/03/03 04:51:31;;;;;;;13.65;9.07;;;;;;;-0.09;100.00;61992.25;5100486;28;20464;-77
2022/03/03 04:53:59;;;;;;;15.63;9.48;;;;;;;-0.15;100.00;61983.59;5108280;28;20549;-77
2022/03/03 04:56:26;;;;;;;18.88;9.68;;;;;;;-0.10;100.00;61996.22;5102843;28;20196;-79
2022/03/03 04:58:52;;;;;;;15.20;10.27;;;;;;;-0.09;100.00;61992.75;5108245;28;20269;-77
2022/03/03 05:01:20;;;;;;;19.85;11.77;;;;;;;-0.09;100.00;61995.25;5106981;28;20207;-78
2022/03/03 05:03:46;;;;;;;17.63;9.85;;;;;;;-0.15;100.00;61986.09;5106087;28;20200;-78
2022/03/03 05:06:14;;;;;;;21.30;10.98;;;;;;;-0.08;100.00;61993.28;5107261;28;20203;-77
2022/03/03 05:08:42;;;;;;;17.05;10.63;;;;;;;0.02;100.00;62001.00;5110885;28;20196;-77
2022/03/03 05:11:10;;;;;;;20.55;11.18;;;;;;;-0.05;100.00;61996.34;5105629;28;20202;-77
2022/03/03 05:13:37;;;;;;;19.90;10.85;;;;;;;-0.06;100.00;61995.31;5097846;28;20261;-78
2022/03/03 05:16:05;;;;;;;15.82;7.90;;;;;;;-0.03;99.86;62003.41;5107135;28;20248;-77
2022/03/03 05:18:33;;;;;;;11.88;8.35;;;;;;;-0.08;99.44;61991.28;5107738;28;20574;-77
2022/03/03 05:21:00;;;;;;;19.02;10.48;;;;;;;-0.03;99.89;62001.41;5093061;28;20196;-77
2022/03/03 05:23:26;;;;;;;14.73;10.68;;;;;;;-0.02;100.00;61999.44;5101162;28;20228;-77
2022/03/03 05:25:53;;;;;;;17.38;10.30;;;;;;;-0.12;100.00;61989.16;5106863;28;20196;-77
2022/03/03 05:28:21;;;;;;;18.10;10.90;;;;;;;-0.02;100.00;61994.94;5106632;28;20435;-77
2022/03/03 05:30:48;;;;;;;15.90;10.50;;;;;;;-0.04;100.00;61997.91;5093967;28;20201;-77
2022/03/03 05:33:15;;;;;;;17.70;10.32;;;;;;;0.02;100.00;62003.03;5102488;28;20368;-77
2022/03/03 05:35:46;;;;;;;19.35;10.68;;;;;;;0.03;100.00;62002.56;5106714;28;20199;-77
2022/03/03 05:38:13;;;;;;;15.50;9.43;;;;;;;-0.03;100.00;61998.41;5106884;28;20409;-77
2022/03/03 05:40:40;;;;;;;20.60;11.38;;;;;;;-0.02;100.00;61994.44;5102449;28;20499;-76
2022/03/03 05:43:10;;;;;;;14.90;10.35;;;;;;;0.03;100.00;62007.06;5104745;28;20265;-77
2022/03/03 05:45:40;;;;;;;14.30;9.70;;;;;;;-0.09;100.00;61990.25;5093296;28;20201;-77
2022/03/03 05:48:08;;;;;;;16.20;9.57;;;;;;;0.02;99.94;62003.03;5086671;28;20405;-77
2022/03/03 05:50:35;;;;;;;15.65;8.65;;;;;;;-0.05;100.00;61998.84;5097784;28;20263;-77
2022/03/03 05:53:02;;;;;;;18.70;11.95;;;;;;;0.02;100.00;62008.53;5105352;28;20547;-77
2022/03/03 05:55:30;;;;;;;15.05;9.65;;;;;;;-0.11;100.00;61990.22;5103082;28;20266;-76
2022/03/03 05:58:00;;;;;;;14.50;9.57;;;;;;;0.09;98.64;62007.69;5085538;28;20220;-77
2022/03/03 06:00:28;;;;;;;14.05;10.63;;;;;;;0.00;98.71;62004.00;5102054;28;20234;-77
2022/03/03 06:02:57;;;;;;;16.30;10.13;;;;;;;0.10;98.44;62014.22;5104447;28;20536;-77
2022/03/03 06:05:25;;;;;;;23.20;10.85;;;;;;;0.14;98.69;62018.31;5099740;28;20424;-76
2022/03/03 06:07:54;;;;;;;13.70;7.72;;;;;;;0.23;98.04;62022.03;5106020;28;20277;-76
2022/03/03 06:10:23;;;;;;;24.23;10.57;;;;;;;0.13;98.02;62014.81;5106630;28;20192;-75
2022/03/03 06:12:55;;;;;;;12.35;8.88;;;;;;;0.14;97.91;62017.81;5096632;28;20228;-75
2022/03/03 06:15:23;;;;;;;15.77;9.82;;;;;;;0.19;97.30;62020.94;5096628;28;20226;-76
2022/03/03 06:17:50;;;;;;;18.90;11.55;;;;;;;0.28;96.87;62030.16;5087977;28;20402;-75
2022/03/03 06:20:19;;;;;;;20.33;11.13;;;;;;;0.27;96.65;62026.66;5094859;28;20222;-76
2022/03/03 06:22:46;;;;;;;16.15;10.98;;;;;;;0.44;95.85;62046.56;5102902;28;20231;-76
2022/03/03 06:25:13;;;;;;;16.15;10.82;;;;;;;0.53;95.05;62055.28;5105031;28;20226;-77
2022/03/03 06:27:40;;;;;;;21.83;12.40;;;;;;;0.55;93.26;62059.84;5112421;28;20284;-76
2022/03/03 06:30:09;;;;;;;15.38;10.27;;;;;;;0.56;92.27;62055.84;5111322;28;20199;-77
2022/03/03 06:32:36;;;;;;;22.00;11.15;;;;;;;0.65;91.80;62068.13;5103695;28;20250;-76
2022/03/03 06:35:03;;;;;;;10.57;7.03;;;;;;;0.67;91.39;62069.66;5097988;28;20237;-76
2022/03/03 06:37:32;;;;;;;17.48;10.45;;;;;;;0.64;91.31;62064.56;5106373;28;20239;-76
2022/03/03 06:39:59;;;;;;;12.75;8.02;;;;;;;0.66;89.63;62071.13;5099161;28;20443;-76
2022/03/03 06:42:26;;;;;;;15.52;10.13;;;;;;;0.68;89.32;62070.66;5105917;28;20417;-74
2022/03/03 06:44:54;;;;;;;17.48;9.52;;;;;;;0.73;88.75;62071.31;5104396;28;20263;-76
2022/03/03 06:47:21;;;;;;;17.55;9.98;;;;;;;0.86;87.87;62087.13;5104830;28;20241;-76
2022/03/03 06:49:48;;;;;;;14.02;9.15;;;;;;;0.91;86.87;62099.78;5100576;28;20196;-75
2022/03/03 06:52:18;;;;;;;15.68;10.18;;;;;;;1.05;86.51;62109.13;5099161;28;20246;-75
2022/03/03 06:54:51;;;;;;;14.63;9.45;;;;;;;1.06;85.27;62112.66;5109322;28;20192;-78
2022/03/03 06:57:21;;;;;;;18.50;9.50;;;;;;;1.21;84.39;62117.50;5110109;28;20226;-77
2022/03/03 06:59:50;;;;;;;17.70;10.15;;;;;;;1.25;84.32;62129.13;5114452;28;20925;-77
2022/03/03 07:02:18;;;;;;;15.13;9.23;;;;;;;1.37;84.03;62140.94;5113108;28;20227;-79
2022/03/03 07:04:49;;;;;;;16.92;11.23;;;;;;;1.43;84.40;62147.63;5105893;28;20223;-80
2022/03/03 07:07:16;;;;;;;24.13;10.88;;;;;;;1.56;81.89;62157.91;5108785;28;20212;-79
2022/03/03 07:09:44;;;;;;;16.60;9.00;;;;;;;1.38;82.28;62141.97;5106310;28;20211;-75
2022/03/03 07:12:15;;;;;;;15.70;8.68;;;;;;;1.29;82.40;62125.72;5104966;28;20216;-77
2022/03/03 07:14:42;;;;;;;14.95;9.40;;;;;;;1.50;80.55;62151.78;5101884;28;20192;-75
2022/03/03 07:17:15;;;;;;;19.50;8.80;;;;;;;1.54;79.86;62158.38;5104188;28;20528;-74
2022/03/03 07:19:55;;;;;;;15.38;10.73;;;;;;;1.52;80.69;62154.31;5084790;28;20267;-75
2022/03/03 07:22:31;;;;;;;14.40;8.70;;;;;;;1.62;78.78;62166.59;5096598;28;20216;-74
2022/03/03 07:25:03;;;;;;;16.58;8.82;;;;;;;1.59;78.57;62164.03;5097696;28;20200;-75
2022/03/03 07:27:31;;;;;;;18.13;10.10;;;;;;;1.44;80.01;62148.13;5103839;28;20270;-74
2022/03/03 07:30:01;;;;;;;11.75;7.90;;;;;;;1.70;78.25;62172.81;5102560;28;20222;-74
2022/03/03 07:32:34;;;;;;;13.38;8.60;;;;;;;1.80;77.24;62182.56;5091556;28;20216;-75
2022/03/03 07:35:05;;;;;;;17.05;7.82;;;;;;;1.80;74.90;62180.56;5099331;28;20524;-73
2022/03/03 07:37:36;;;;;;;13.23;8.43;;;;;;;1.86;74.98;62191.75;5102345;28;20220;-74
2022/03/03 07:40:07;;;;;;;11.00;8.57;;;;;;;1.71;74.81;62178.84;5095859;28;20247;-73
2022/03/03 07:42:37;;;;;;;13.93;8.75;;;;;;;1.69;75.54;62171.78;5100035;28;20516;-77
2022/03/03 07:45:05;;;;;;;12.27;8.50;;;;;;;1.90;75.07;62195.31;5103764;28;20204;-76
2022/03/03 07:47:32;;;;;;;10.68;7.60;;;;;;;1.97;75.51;62200.53;5102402;28;20258;-77
2022/03/03 07:49:59;;;;;;;10.57;7.95;;;;;;;2.26;73.55;62230.28;5098502;28;20249;-76
2022/03/03 07:52:28;;;;;;;10.38;8.32;;;;;;;2.07;75.17;62207.78;5090987;28;20247;-78
2022/03/03 07:54:56;;;;;;;13.75;8.38;;;;;;;1.87;74.53;62187.22;5093047;28;20260;-76
2022/03/03 07:57:25;;;;;;;10.13;6.78;;;;;;;1.59;72.10;62163.53;5104676;28;20295;-75
2022/03/03 07:59:59;;;;;;;10.25;6.78;;;;;;;1.78;72.58;62183.53;5101091;28;20433;-76
2022/03/03 08:02:26;;;;;;;10.57;6.75;;;;;;;2.03;71.01;62206.69;5104032;28;20262;-76
2022/03/03 08:04:53;;;;;;;13.23;6.90;;;;;;;1.67;72.92;62172.25;5088889;28;20196;-75
2022/03/03 08:07:21;;;;;;;7.97;5.95;;;;;;;1.39;73.42;62140.47;5101631;28;20231;-76
2022/03/03 08:09:48;;;;;;;10.38;6.97;;;;;;;1.69;73.50;62171.78;5093874;28;20200;-76
2022/03/03 08:12:17;;;;;;;17.10;7.57;;;;;;;1.61;74.74;62160.53;5092412;28;20283;-75
2022/03/03 08:14:46;;;;;;;7.97;6.18;;;;;;;1.76;71.18;62180.97;5102841;28;20530;-76
2022/03/03 08:17:16;;;;;;;10.68;6.47;;;;;;;1.91;70.22;62193.84;5107712;28;20216;-76
2022/03/03 08:19:44;;;;;;;6.47;5.70;;;;;;;1.93;70.23;62198.41;5101048;28;20262;-75
2022/03/03 08:22:13;;;;;;;10.85;6.90;;;;;;;1.56;71.48;62160.44;5099775;28;20222;-76
2022/03/03 08:24:43;;;;;;;8.50;6.57;;;;;;;1.75;71.84;62177.41;5101238;28;20208;-76
2022/03/03 08:27:12;;;;;;;9.88;6.50;;;;;;;1.73;74.12;62180.38;5103783;28;20262;-75
2022/03/03 08:29:40;;;;;;;10.55;6.72;;;;;;;1.78;73.10;62183.53;5100468;28;20188;-74
2022/03/03 08:32:10;;;;;;;7.03;5.80;;;;;;;1.81;71.10;62183.59;5102604;28;20231;-73
2022/03/03 08:34:43;;;;;;;9.40;6.45;;;;;;;1.71;71.54;62175.84;5097628;28;20192;-75
2022/03/03 08:37:18;;;;;;;9.45;6.85;;;;;;;1.73;72.79;62178.41;5100662;28;20218;-74
2022/03/03 08:39:47;;;;;;;9.75;6.13;;;;;;;1.76;74.36;62186.00;5100548;28;20216;-74
2022/03/03 08:42:17;;;;;;;9.00;6.43;;;;;;;1.95;71.81;62203.47;5104252;28;20877;-74
2022/03/03 08:44:44;;;;;;;7.13;4.90;;;;;;;1.84;69.66;62189.16;5107130;28;20200;-76
2022/03/03 08:47:15;;;;;;;13.18;7.32;;;;;;;1.95;70.44;62202.97;5097355;28;20219;-75
2022/03/03 08:49:47;;;;;;;12.45;6.72;;;;;;;2.34;67.74;62238.00;5097137;28;20227;-74
2022/03/03 08:52:14;;;;;;;11.82;7.53;;;;;;;1.93;71.41;62195.91;5100690;28;20528;-75
2022/03/03 08:54:41;;;;;;;7.38;5.97;;;;;;;2.18;69.26;62221.56;5095628;28;20426;-75
2022/03/03 08:57:08;;;;;;;9.30;5.93;;;;;;;1.91;70.27;62194.38;5100118;28;20220;-76
2022/03/03 08:59:36;;;;;;;10.35;7.40;;;;;;;1.98;70.61;62206.56;5110469;28;20227;-76
2022/03/03 09:02:03;;;;;;;9.65;7.10;;;;;;;2.27;69.82;62235.84;5109089;28;20265;-77
2022/03/03 09:04:30;;;;;;;10.88;6.75;;;;;;;2.25;70.25;62228.75;5110425;28;20196;-77
2022/03/03 09:06:58;;;;;;;11.38;7.25;;;;;;;2.27;70.96;62235.84;5112834;28;20214;-77
2022/03/03 09:09:25;;;;;;;14.00;8.13;;;;;;;2.61;69.72;62265.72;5107817;28;20212;-77
2022/03/03 09:11:52;;;;;;;9.93;7.65;;;;;;;2.76;65.18;62283.66;5099987;28;20224;-77
2022/03/03 09:14:19;;;;;;;11.25;7.03;;;;;;;2.72;66.34;62279.56;5106762;28;20614;-77
2022/03/03 09:16:46;;;;;;;9.23;6.07;;;;;;;2.97;65.32;62307.25;5100673;28;20216;-76
2022/03/03 09:19:12;;;;;;;10.27;6.93;;;;;;;2.99;66.18;62309.81;5103424;28;20228;-79
2022/03/03 09:21:40;;;;;;;8.85;6.90;;;;;;;2.56;65.90;62260.06;5098157;28;20235;-77
2022/03/03 09:24:09;;;;;;;10.30;6.93;;;;;;;2.90;64.88;62300.56;5103316;28;20211;-76
2022/03/03 09:26:36;;;;;;;11.82;6.88;;;;;;;3.07;63.97;62313.00;5103842;28;20235;-78
2022/03/03 09:29:03;;;;;;;9.20;6.45;;;;;;;2.92;63.35;62300.09;5101458;28;20196;-77
2022/03/03 09:31:29;;;;;;;11.50;6.57;;;;;;;3.22;62.08;62325.91;5099082;28;20220;-77
2022/03/03 09:33:56;;;;;;;10.00;5.70;;;;;;;3.16;59.19;62322.25;5098565;28;20192;-78
2022/03/03 09:36:23;;;;;;;12.38;7.25;;;;;;;3.35;62.27;62338.75;5096653;28;20370;-78
2022/03/03 09:38:50;;;;;;;9.65;6.82;;;;;;;3.47;60.99;62356.63;5097539;28;20201;-78
2022/03/03 09:41:18;;;;;;;10.20;6.63;;;;;;;3.49;60.74;62358.69;5099706;28;20367;-78
2022/03/03 09:43:45;;;;;;;5.25;4.75;;;;;;;3.69;57.58;62373.72;5103482;28;20247;-78
2022/03/03 09:46:13;;;;;;;10.57;7.10;;;;;;;3.68;59.75;62377.19;5106060;28;20216;-76
2022/03/03 09:48:40;;;;;;;7.25;6.13;;;;;;;3.40;59.73;62346.41;5100127;28;20223;-79
2022/03/03 09:51:08;;;;;;;10.48;6.22;;;;;;;3.52;58.02;62359.25;5106257;28;20196;-77
2022/03/03 09:53:35;;;;;;;7.40;5.25;;;;;;;3.76;56.86;62380.41;5096138;28;20513;-78
2022/03/03 09:56:01;;;;;;;10.75;5.80;;;;;;;3.67;57.72;62371.16;5105735;28;20199;-77
2022/03/03 09:58:30;;;;;;;6.30;5.60;;;;;;;3.82;56.81;62394.13;5094972;28;20216;-77
2022/03/03 10:00:57;;;;;;;13.20;6.65;;;;;;;3.65;58.47;62376.63;5106798;28;20224;-78
2022/03/03 10:03:32;;;;;;;7.57;6.38;;;;;;;3.60;59.88;62366.97;5104731;28;20277;-78
2022/03/03 10:06:00;;;;;;;8.55;6.68;;;;;;;3.90;58.35;62402.84;5106318;28;20195;-77
2022/03/03 10:08:28;;;;;;;8.38;5.32;;;;;;;3.82;58.04;62391.59;5103957;28;20254;-80
2022/03/03 10:11:02;;;;;;;12.07;7.53;;;;;;;3.96;59.37;62403.47;5100298;28;20201;-77
2022/03/03 10:13:47;;;;;;;11.95;5.97;;;;;;;4.24;56.93;62429.78;5111982;28;20529;-79
2022/03/03 10:16:20;;;;;;;8.85;6.25;;;;;;;4.30;57.26;62438.47;5114027;28;20225;-78
2022/03/03 10:18:53;;;;;;;8.15;5.03;;;;;;;4.29;55.58;62440.47;5116003;28;20183;-79
2022/03/03 10:21:20;;;;;;;10.55;6.82;;;;;;;4.34;55.39;62442.59;5110826;28;20218;-78
2022/03/03 10:23:48;;;;;;;8.25;6.93;;;;;;;4.41;56.66;62447.78;5111129;28;20550;-80
2022/03/03 10:26:15;;;;;;;9.75;6.68;;;;;;;3.88;57.61;62395.78;5111511;28;20271;-79
2022/03/03 10:28:49;;;;;;;8.25;5.78;;;;;;;3.19;58.70;62324.84;5109639;28;20215;-82
2022/03/03 10:31:20;;;;;;;8.32;5.38;;;;;;;3.55;59.89;62362.34;5101547;28;20203;-79
2022/03/03 10:33:49;;;;;;;7.90;5.35;;;;;;;3.78;59.14;62382.97;5100854;28;20482;-80
2022/03/03 10:36:18;;;;;;;9.02;6.30;;;;;;;3.33;59.19;62342.25;5105863;28;20407;-80
2022/03/03 10:38:54;;;;;;;12.45;7.28;;;;;;;3.46;60.22;62358.13;5105603;28;20431;-77
2022/03/03 10:41:36;;;;;;;9.52;7.45;;;;;;;3.41;60.23;62350.47;5110974;28;20224;-78
2022/03/03 10:44:07;;;;;;;9.25;6.45;;;;;;;3.93;59.16;62398.41;5103880;28;20193;-77
2022/03/03 10:46:35;;;;;;;8.70;6.35;;;;;;;4.06;59.62;62421.84;5090428;28;20219;-77
2022/03/03 10:49:17;;;;;;;11.68;6.75;;;;;;;3.96;58.52;62411.56;5104417;28;20281;-77
2022/03/03 10:51:44;;;;;;;8.65;6.90;;;;;;;3.89;60.33;62399.31;5109217;28;20219;-76
2022/03/03 10:54:11;;;;;;;10.40;5.40;;;;;;;3.95;59.65;62405.47;5104978;28;20241;-76
2022/03/03 10:56:44;;;;;;;8.80;6.55;;;;;;;4.09;58.51;62421.91;5102834;28;20238;-77
2022/03/03 10:59:21;;;;;;;8.27;6.25;;;;;;;4.17;57.99;62427.63;5106319;28;20206;-76
2022/03/03 11:01:49;;;;;;;8.20;7.05;;;;;;;4.11;59.19;62418.91;5108195;28;20246;-77
2022/03/03 11:04:18;;;;;;;9.63;7.32;;;;;;;4.19;57.66;62429.66;5095716;28;20200;-76
2022/03/03 11:06:48;;;;;;;8.05;6.60;;;;;;;4.26;58.02;62437.38;5095475;28;20212;-76
2022/03/03 11:09:17;;;;;;;9.52;7.18;;;;;;;4.23;58.64;62431.25;5109267;28;20196;-75
2022/03/03 11:11:44;;;;;;;10.63;7.15;;;;;;;4.07;57.91;62419.84;5107885;28;20216;-75
2022/03/03 11:14:13;;;;;;;7.53;6.70;;;;;;;4.13;58.90;62426.00;5098117;28;20200;-78
2022/03/03 11:16:41;;;;;;;12.98;7.60;;;;;;;4.15;59.27;62423.56;5098548;28;20219;-77
2022/03/03 11:19:10;;;;;;;10.98;7.78;;;;;;;4.18;59.78;62426.63;5096500;28;20230;-77
2022/03/03 11:21:39;;;;;;;11.25;7.13;;;;;;;4.32;60.27;62443.03;5097968;28;20234;-77
2022/03/03 11:24:08;;;;;;;10.20;7.03;;;;;;;4.16;59.75;62424.06;5105687;28;20202;-78
2022/03/03 11:26:42;;;;;;;10.95;6.60;;;;;;;4.02;58.55;62412.69;5108318;28;20230;-77
2022/03/03 11:29:11;;;;;;;8.80;7.13;;;;;;;3.98;60.81;62406.06;5107108;28;20427;-76
2022/03/03 11:31:41;;;;;;;9.70;7.32;;;;;;;4.01;60.37;62413.66;5102641;28;20224;-77
2022/03/03 11:34:52;;;;;;;12.20;6.85;;;;;;;3.95;61.38;62407.50;5110131;28;20251;-77